createdAt,value
2023-07-24T00:00:01.424Z,54.0
2023-07-24T00:05:01.558Z,54.4
2023-07-24T00:10:01.365Z,55.0
2023-07-24T00:15:01.509Z,56.1
2023-07-24T00:20:01.349Z,56.8
2023-07-24T00:25:01.707Z,54.2
2023-07-24T00:30:01.339Z,55.0
2023-07-24T00:35:01.749Z,55.2
2023-07-24T00:40:01.392Z,54.0
2023-07-24T00:45:05.610Z,53.4
2023-07-24T00:55:01.469Z,53.1
2023-07-24T01:05:01.511Z,52.2
2023-07-24T01:10:01.316Z,52.6
2023-07-24T01:15:02.415Z,53.3
2023-07-24T01:35:02.003Z,51.8
2023-07-24T01:40:06.930Z,52.7
2023-07-24T01:45:01.921Z,53.1
2023-07-24T01:50:01.836Z,52.7
2023-07-24T01:55:01.992Z,52.8
2023-07-24T02:00:07.158Z,53.3
2023-07-24T02:05:01.999Z,53.7
2023-07-24T02:10:01.882Z,54.2
2023-07-24T02:15:02.533Z,54.8
2023-07-24T02:20:01.842Z,54.5
2023-07-24T02:25:01.901Z,54.2
2023-07-24T02:30:01.829Z,53.3
2023-07-24T02:35:02.199Z,51.9
2023-07-24T02:40:01.962Z,51.8
2023-07-24T02:45:06.981Z,51.8
2023-07-24T02:50:07.936Z,51.7
2023-07-24T03:00:02.041Z,52.5
2023-07-24T03:05:01.901Z,52.7
2023-07-24T03:10:01.862Z,53.0
2023-07-24T03:15:01.859Z,53.4
2023-07-24T03:20:01.808Z,53.9
2023-07-24T03:25:01.912Z,53.0
2023-07-24T03:30:02.025Z,52.9
2023-07-24T03:35:01.913Z,52.0
2023-07-24T03:40:01.761Z,51.6
2023-07-24T03:45:01.884Z,51.5
2023-07-24T03:50:02.359Z,51.9
2023-07-24T03:55:02.011Z,50.9
2023-07-24T04:05:02.437Z,50.3
2023-07-24T04:10:02.093Z,50.0
2023-07-24T04:15:02.083Z,50.5
2023-07-24T04:20:01.984Z,51.0
2023-07-24T04:25:02.873Z,51.8
2023-07-24T04:30:01.872Z,52.6
2023-07-24T04:35:02.449Z,52.8
2023-07-24T04:45:07.310Z,52.6
2023-07-24T04:50:01.758Z,51.8
2023-07-24T04:55:01.725Z,51.6
2023-07-24T05:00:01.770Z,51.4
2023-07-24T05:05:01.796Z,50.8
2023-07-24T05:10:01.820Z,50.7
2023-07-24T05:15:01.756Z,51.2
2023-07-24T05:20:01.692Z,51.6
2023-07-24T05:30:01.692Z,50.2
2023-07-24T05:35:02.117Z,49.8
2023-07-24T05:45:01.770Z,48.7
2023-07-24T05:50:01.663Z,49.4
2023-07-24T05:55:01.724Z,50.0
2023-07-24T06:00:02.066Z,50.6
2023-07-24T06:05:02.019Z,49.8
2023-07-24T06:10:06.726Z,49.9
2023-07-24T06:15:01.802Z,49.6
2023-07-24T06:20:01.680Z,49.4
2023-07-24T06:25:01.863Z,49.1
2023-07-24T06:30:16.432Z,49.3
2023-07-24T06:35:01.704Z,49.9
2023-07-24T06:40:01.649Z,50.4
2023-07-24T06:55:01.713Z,51.4
2023-07-24T07:00:01.876Z,53.1
2023-07-24T07:05:01.805Z,53.1
2023-07-24T07:10:01.718Z,53.0
2023-07-24T07:15:02.025Z,53.3
2023-07-24T07:20:01.776Z,53.0
2023-07-24T07:25:01.729Z,51.1
2023-07-24T07:35:01.806Z,51.0
2023-07-24T07:40:01.918Z,50.7
2023-07-24T07:45:01.821Z,50.9
2023-07-24T07:50:01.751Z,51.2
2023-07-24T07:55:01.877Z,51.4
2023-07-24T08:05:12.986Z,53.5
2023-07-24T08:10:01.530Z,53.1
2023-07-24T08:15:01.655Z,52.6
2023-07-24T08:20:01.854Z,52.0
2023-07-24T08:25:01.812Z,49.1
2023-07-24T08:35:01.670Z,50.1
2023-07-24T08:40:01.572Z,50.6
2023-07-24T08:45:01.667Z,55.6
2023-07-24T08:50:01.599Z,55.6
2023-07-24T08:55:02.303Z,55.4
2023-07-24T09:00:01.587Z,55.2
2023-07-24T09:05:02.224Z,54.8
2023-07-24T09:10:01.572Z,50.0
2023-07-24T09:15:02.074Z,49.8
2023-07-24T09:20:01.877Z,49.5
2023-07-24T09:25:01.648Z,49.4
2023-07-24T09:30:01.562Z,49.2
2023-07-24T09:35:01.608Z,49.5
2023-07-24T09:55:01.624Z,53.4
2023-07-24T10:00:01.460Z,53.8
2023-07-24T10:05:01.535Z,54.7
2023-07-24T10:10:01.142Z,55.0
2023-07-24T10:15:01.427Z,55.1
2023-07-24T10:25:01.292Z,54.6
2023-07-24T10:30:01.069Z,54.3
2023-07-24T10:35:01.574Z,54.2
2023-07-24T10:45:01.205Z,55.6
2023-07-24T10:50:01.141Z,56.1
2023-07-24T10:55:01.305Z,56.0
2023-07-24T11:00:01.141Z,55.5
2023-07-24T11:05:02.459Z,55.2
2023-07-24T11:10:01.231Z,53.4
2023-07-24T11:15:01.326Z,53.3
2023-07-24T11:20:01.227Z,52.8
2023-07-24T11:25:01.226Z,53.2
2023-07-24T11:30:01.172Z,54.6
2023-07-24T11:35:06.316Z,55.8
2023-07-24T11:40:01.158Z,57.2
2023-07-24T11:45:01.256Z,57.6
2023-07-24T11:50:01.151Z,57.6
2023-07-24T11:55:02.470Z,56.0
2023-07-24T12:00:01.157Z,55.4
2023-07-24T12:05:01.278Z,54.4
2023-07-24T12:10:01.172Z,57.1
2023-07-24T12:15:01.409Z,58.1
2023-07-24T12:20:01.170Z,59.3
2023-07-24T12:25:01.221Z,60.1
2023-07-24T12:30:01.522Z,59.9
2023-07-24T12:35:01.337Z,57.5
2023-07-24T12:40:01.357Z,57.0
2023-07-24T12:45:01.238Z,56.5
2023-07-24T12:50:01.190Z,56.0
2023-07-24T13:00:01.275Z,56.8
2023-07-24T13:05:01.232Z,56.3
2023-07-24T13:10:01.320Z,56.1
2023-07-24T13:15:01.245Z,55.8
2023-07-24T13:20:01.224Z,56.0
2023-07-24T13:25:01.480Z,56.0
2023-07-24T13:30:01.159Z,56.1
2023-07-24T13:35:01.388Z,56.4
2023-07-24T13:40:01.516Z,56.9
2023-07-24T13:45:01.294Z,56.7
2023-07-24T13:50:01.221Z,56.8
2023-07-24T14:00:01.344Z,56.7
2023-07-24T14:10:01.304Z,56.9
2023-07-24T14:15:01.230Z,57.0
2023-07-24T14:20:01.260Z,57.4
2023-07-24T14:25:01.297Z,57.8
2023-07-24T14:30:01.165Z,57.4
2023-07-24T14:35:01.305Z,56.5
2023-07-24T14:40:02.492Z,55.8
2023-07-24T14:45:01.323Z,55.3
2023-07-24T14:50:01.280Z,58.2
2023-07-24T14:55:01.349Z,57.7
2023-07-24T15:00:01.328Z,57.7
2023-07-24T15:05:01.292Z,58.6
2023-07-24T15:35:01.216Z,54.8
2023-07-24T15:40:02.103Z,53.4
2023-07-24T15:45:01.202Z,53.0
2023-07-24T15:50:01.065Z,52.8
2023-07-24T15:55:01.231Z,53.3
2023-07-24T16:00:01.364Z,53.8
2023-07-24T16:05:01.243Z,54.2
2023-07-24T16:10:01.107Z,54.3
2023-07-24T16:15:01.204Z,54.6
2023-07-24T16:20:01.059Z,54.0
2023-07-24T16:25:01.159Z,53.4
2023-07-24T16:30:01.108Z,53.9
2023-07-24T16:35:01.654Z,54.4
2023-07-24T16:45:02.657Z,58.0
2023-07-24T16:55:01.323Z,57.6
2023-07-24T17:00:01.171Z,57.4
2023-07-24T17:05:01.285Z,57.4
2023-07-24T17:10:01.089Z,54.4
2023-07-24T17:15:01.223Z,54.5
2023-07-24T17:20:01.248Z,54.6
2023-07-24T17:25:01.394Z,54.6
2023-07-24T17:30:01.311Z,54.4
2023-07-24T17:35:01.312Z,53.6
2023-07-24T17:40:01.110Z,53.0
2023-07-24T17:45:02.188Z,52.7
2023-07-24T17:50:08.654Z,52.2
2023-07-24T17:55:01.135Z,52.3
2023-07-24T18:00:01.217Z,52.5
2023-07-24T18:05:01.210Z,53.4
2023-07-24T18:10:01.452Z,55.0
2023-07-24T18:15:01.155Z,57.1
2023-07-24T18:20:01.055Z,58.6
2023-07-24T18:25:01.225Z,60.2
2023-07-24T18:30:01.054Z,61.1
2023-07-24T18:35:01.124Z,61.7
2023-07-24T18:40:01.167Z,60.6
2023-07-24T18:45:01.186Z,61.0
2023-07-24T18:50:01.085Z,61.7
2023-07-24T18:55:01.132Z,61.4
2023-07-24T19:00:01.136Z,60.6
2023-07-24T19:05:01.401Z,60.4
2023-07-24T19:10:01.103Z,59.2
2023-07-24T19:20:01.216Z,56.0
2023-07-24T19:25:01.483Z,56.1
2023-07-24T19:30:01.111Z,55.2
2023-07-24T19:35:02.277Z,54.2
2023-07-24T19:40:01.086Z,53.5
2023-07-24T19:45:01.212Z,53.1
2023-07-24T19:50:01.111Z,51.6
2023-07-24T19:55:01.183Z,51.6
2023-07-24T20:00:01.106Z,51.8
2023-07-24T20:05:01.181Z,52.1
2023-07-24T20:10:01.163Z,53.6
2023-07-24T20:15:01.099Z,53.4
2023-07-24T20:20:00.993Z,53.8
2023-07-24T20:25:01.124Z,53.7
2023-07-24T20:30:01.090Z,53.3
2023-07-24T20:35:01.234Z,51.6
2023-07-24T20:40:01.047Z,51.8
2023-07-24T20:45:01.160Z,51.3
2023-07-24T20:50:01.101Z,51.9
2023-07-24T20:55:06.165Z,52.9
2023-07-24T21:00:01.052Z,55.1
2023-07-24T21:05:01.254Z,57.1
2023-07-24T21:10:01.074Z,58.4
2023-07-24T21:15:01.191Z,60.5
2023-07-24T21:20:01.050Z,60.9
2023-07-24T21:25:01.103Z,62.1
2023-07-24T21:30:01.150Z,62.2
2023-07-24T21:35:01.282Z,64.0
2023-07-24T21:40:01.038Z,64.1
2023-07-24T21:45:01.176Z,65.6
2023-07-24T21:50:01.075Z,64.8
2023-07-24T22:00:01.203Z,63.8
2023-07-24T22:05:01.128Z,61.5
2023-07-24T22:10:01.068Z,59.6
2023-07-24T22:15:01.141Z,58.4
2023-07-24T22:20:01.061Z,57.6
2023-07-24T22:25:01.173Z,56.5
2023-07-24T22:30:01.072Z,56.7
2023-07-24T22:35:01.138Z,56.6
2023-07-24T22:40:01.048Z,56.1
2023-07-24T22:45:01.136Z,57.4
2023-07-24T22:50:01.087Z,59.7
2023-07-24T22:55:01.183Z,61.7
2023-07-24T23:00:01.205Z,63.0
2023-07-24T23:05:01.319Z,64.4
2023-07-24T23:10:01.156Z,67.5
2023-07-24T23:15:01.264Z,65.5
2023-07-24T23:20:01.244Z,63.4
2023-07-24T23:25:01.207Z,62.2
2023-07-24T23:30:01.250Z,60.6
2023-07-24T23:35:01.203Z,55.9
2023-07-24T23:40:01.142Z,56.1
2023-07-24T23:45:01.248Z,57.8
2023-07-24T23:50:01.136Z,59.2
2023-07-24T23:55:01.228Z,61.0
